PHX weather

Phoenix Sky Harbor International Airport
Phoenix, Arizona, United States

Public forecast

Using degrees Fahrenheit for public forecast. Weather courtesy of forecast.io.

METAR (pilot weather report)

Retrieved 2018/06/24 05:51 UTC (20 minutes ago):

KPHX 240551Z 27016KT 10SM CLR 35/09 A2971 RMK AO2 SLP038 T03500094 10428 20344 51015 $

TAF (pilot weather forecast)

Retrieved 2018/06/24 06:40 UTC (0 seconds ago):

TAF KPHX 240538Z 2406/2512 27010KT P6SM SKC TEMPO 2409/2413 VRB05KT FM241300 14005KT P6SM SKC FM241900 24008KT P6SM SKC TEMPO 2500/2504 25010G20KT